createdAt,value
2024-02-10T00:01:54.000Z,2.596
2024-02-10T00:06:54.142Z,2.596
2024-02-10T00:11:53.918Z,2.596
2024-02-10T00:16:54.011Z,2.596
2024-02-10T00:21:53.924Z,2.595
2024-02-10T00:26:53.910Z,2.596
2024-02-10T00:31:53.963Z,2.595
2024-02-10T00:36:54.015Z,2.595
2024-02-10T00:41:53.919Z,2.593
2024-02-10T00:46:53.960Z,2.595
2024-02-10T00:51:53.936Z,2.593
2024-02-10T00:56:53.934Z,2.593
2024-02-10T01:01:54.037Z,2.593
2024-02-10T01:06:53.882Z,2.593
2024-02-10T01:11:53.863Z,2.593
2024-02-10T01:16:53.926Z,2.592
2024-02-10T01:21:53.906Z,2.593
2024-02-10T01:26:53.868Z,2.592
2024-02-10T01:31:53.919Z,2.592
2024-02-10T01:36:53.882Z,2.593
2024-02-10T01:41:53.869Z,2.591
2024-02-10T01:46:53.914Z,2.593
2024-02-10T01:51:53.853Z,2.591
2024-02-10T01:56:53.872Z,2.591
2024-02-10T02:01:53.879Z,2.591
2024-02-10T02:06:53.880Z,2.591
2024-02-10T02:11:53.826Z,2.591
2024-02-10T02:16:53.891Z,2.591
2024-02-10T02:21:53.858Z,2.589
2024-02-10T02:26:53.880Z,2.588
2024-02-10T02:31:54.073Z,2.589
2024-02-10T02:36:53.858Z,2.589
2024-02-10T02:41:53.821Z,2.588
2024-02-10T02:46:53.899Z,2.588
2024-02-10T02:51:53.837Z,2.588
2024-02-10T02:56:53.798Z,2.588
2024-02-10T03:01:53.825Z,2.588
2024-02-10T03:06:53.873Z,2.588
2024-02-10T03:11:53.810Z,2.587
2024-02-10T03:16:53.801Z,2.588
2024-02-10T03:21:53.803Z,2.588
2024-02-10T03:26:53.795Z,2.587
2024-02-10T03:31:53.888Z,2.585
2024-02-10T03:36:53.807Z,2.585
2024-02-10T03:41:53.797Z,2.585
2024-02-10T03:46:53.798Z,2.585
2024-02-10T03:51:53.822Z,2.585
2024-02-10T03:56:53.776Z,2.585
2024-02-10T04:01:53.786Z,2.584
2024-02-10T04:06:53.801Z,2.585
2024-02-10T04:11:53.790Z,2.584
2024-02-10T04:16:54.192Z,2.583
2024-02-10T04:21:53.770Z,2.585
2024-02-10T04:26:53.799Z,2.584
2024-02-10T04:31:53.833Z,2.584
2024-02-10T04:36:53.767Z,2.584
2024-02-10T04:41:53.776Z,2.584
2024-02-10T04:46:53.843Z,2.584
2024-02-10T04:51:53.762Z,2.583
2024-02-10T04:56:53.735Z,2.583
2024-02-10T05:01:53.775Z,2.581
2024-02-10T05:06:53.751Z,2.584
2024-02-10T05:11:53.750Z,2.583
2024-02-10T05:16:53.870Z,2.583
2024-02-10T05:21:53.747Z,2.583
2024-02-10T05:26:53.742Z,2.583
2024-02-10T05:31:53.766Z,2.583
2024-02-10T05:36:53.742Z,2.583
2024-02-10T05:41:53.762Z,2.581
2024-02-10T05:46:53.784Z,2.58
2024-02-10T05:51:53.702Z,2.581
2024-02-10T05:56:53.748Z,2.581
2024-02-10T06:01:53.711Z,2.581
2024-02-10T06:06:53.746Z,2.58
2024-02-10T06:11:53.732Z,2.581
2024-02-10T06:16:53.793Z,2.58
2024-02-10T06:21:53.715Z,2.581
2024-02-10T06:26:53.712Z,2.581
2024-02-10T06:31:53.702Z,2.581
2024-02-10T06:36:53.698Z,2.58
2024-02-10T06:41:53.702Z,2.58
2024-02-10T06:46:53.847Z,2.579
2024-02-10T06:51:53.680Z,2.58
2024-02-10T06:56:53.674Z,2.58
2024-02-10T07:01:53.822Z,2.58
2024-02-10T07:06:53.681Z,2.58
2024-02-10T07:11:53.697Z,2.58
2024-02-10T07:16:53.697Z,2.58
2024-02-10T07:21:53.685Z,2.58
2024-02-10T07:26:53.669Z,2.58
2024-02-10T07:31:53.738Z,2.58
2024-02-10T07:36:53.675Z,2.58
2024-02-10T07:41:53.890Z,2.58
2024-02-10T07:46:53.683Z,2.58
2024-02-10T07:51:53.685Z,2.58
2024-02-10T07:56:53.659Z,2.581
2024-02-10T08:01:53.684Z,2.58
2024-02-10T08:06:53.659Z,2.581
2024-02-10T08:11:53.642Z,2.581
2024-02-10T08:16:53.653Z,2.583
2024-02-10T08:21:53.616Z,2.583
2024-02-10T08:26:53.652Z,2.583
2024-02-10T08:31:53.649Z,2.583
2024-02-10T08:36:53.610Z,2.584
2024-02-10T08:41:53.621Z,2.583
2024-02-10T08:46:53.637Z,2.585
2024-02-10T08:51:59.888Z,2.584
2024-02-10T08:56:53.607Z,2.585
2024-02-10T09:01:53.609Z,2.585
2024-02-10T09:06:53.679Z,2.585
2024-02-10T09:11:53.596Z,2.584
2024-02-10T09:16:53.598Z,2.585
2024-02-10T09:21:53.587Z,2.585
2024-02-10T09:31:53.861Z,2.585
2024-02-10T09:41:53.561Z,2.585
2024-02-10T09:46:53.577Z,2.585
2024-02-10T09:51:53.532Z,2.585
2024-02-10T09:56:53.528Z,2.585
2024-02-10T10:01:53.559Z,2.585
2024-02-10T10:06:53.532Z,2.585
2024-02-10T12:16:53.415Z,2.588
2024-02-10T12:31:53.397Z,2.588
2024-02-10T12:36:53.394Z,2.588
2024-02-10T12:46:53.465Z,2.588
2024-02-10T13:06:53.337Z,2.588
2024-02-10T13:11:53.357Z,2.588
2024-02-10T13:16:55.170Z,2.588
2024-02-10T13:21:53.353Z,2.588
2024-02-10T13:26:53.325Z,2.588
2024-02-10T13:31:53.397Z,2.589
2024-02-10T13:36:53.323Z,2.588
2024-02-10T13:41:53.325Z,2.588
2024-02-10T13:46:53.321Z,2.588
2024-02-10T13:51:53.307Z,2.588
2024-02-10T13:56:53.304Z,2.588
2024-02-10T14:01:53.305Z,2.588
2024-02-10T14:06:55.025Z,2.588
2024-02-10T14:11:53.301Z,2.588
2024-02-10T14:16:53.301Z,2.588
2024-02-10T14:21:53.280Z,2.588
2024-02-10T14:26:53.477Z,2.588
2024-02-10T14:31:53.810Z,2.585
2024-02-10T14:36:53.285Z,2.588
2024-02-10T14:41:53.320Z,2.588
2024-02-10T14:46:53.267Z,2.588
2024-02-10T14:51:53.274Z,2.588
2024-02-10T14:56:53.277Z,2.588
2024-02-10T15:01:53.276Z,2.588
2024-02-10T15:06:53.257Z,2.588
2024-02-10T15:11:53.243Z,2.587
2024-02-10T15:16:53.276Z,2.587
2024-02-10T15:21:53.221Z,2.587
2024-02-10T15:26:53.203Z,2.588
2024-02-10T15:31:53.245Z,2.588
2024-02-10T15:36:53.221Z,2.588
2024-02-10T15:41:53.196Z,2.585
2024-02-10T15:46:53.268Z,2.585
2024-02-10T15:51:53.218Z,2.588
2024-02-10T15:56:53.200Z,2.585
2024-02-10T16:01:53.257Z,2.585
2024-02-10T16:06:53.190Z,2.585
2024-02-10T16:11:53.160Z,2.585
2024-02-10T16:16:53.186Z,2.585
2024-02-10T16:21:53.171Z,2.585
2024-02-10T16:26:53.185Z,2.587
2024-02-10T16:31:53.185Z,2.585
2024-02-10T16:36:53.145Z,2.585
2024-02-10T16:46:53.142Z,2.585
2024-02-10T16:51:53.174Z,2.585
2024-02-10T16:56:53.129Z,2.584
2024-02-10T17:01:53.144Z,2.584
2024-02-10T17:06:53.104Z,2.584
2024-02-10T17:11:53.102Z,2.584
2024-02-10T17:16:53.146Z,2.584
2024-02-10T17:21:53.071Z,2.583
2024-02-10T17:26:53.150Z,2.583
2024-02-10T17:31:53.135Z,2.583
2024-02-10T17:36:53.083Z,2.583
2024-02-10T17:41:53.088Z,2.581
2024-02-10T17:46:53.144Z,2.583
2024-02-10T17:51:53.101Z,2.583
2024-02-10T17:56:53.070Z,2.581
2024-02-10T18:01:53.142Z,2.581
2024-02-10T18:06:53.145Z,2.58
2024-02-10T18:11:53.056Z,2.581
2024-02-10T18:16:53.093Z,2.58
2024-02-10T18:21:53.067Z,2.581
2024-02-10T18:26:53.106Z,2.581
2024-02-10T18:31:53.074Z,2.58
2024-02-10T18:36:53.043Z,2.581
2024-02-10T18:41:53.070Z,2.58
2024-02-10T18:46:53.049Z,2.58
2024-02-10T18:51:53.044Z,2.58
2024-02-10T18:56:53.071Z,2.581
2024-02-10T19:01:53.038Z,2.58
2024-02-10T19:06:53.026Z,2.58
2024-02-10T19:11:53.018Z,2.58
2024-02-10T19:16:53.053Z,2.579
2024-02-10T19:21:53.028Z,2.58
2024-02-10T19:26:53.064Z,2.58
2024-02-10T19:31:53.013Z,2.58
2024-02-10T19:36:53.016Z,2.579
2024-02-10T19:41:53.016Z,2.579
2024-02-10T19:46:53.006Z,2.579
2024-02-10T19:51:53.018Z,2.579
2024-02-10T19:56:53.085Z,2.577
2024-02-10T20:01:53.025Z,2.58
2024-02-10T20:06:53.042Z,2.577
2024-02-10T20:11:52.980Z,2.577
2024-02-10T20:16:53.026Z,2.579
2024-02-10T20:21:52.976Z,2.577
2024-02-10T20:26:52.970Z,2.577
2024-02-10T20:31:52.991Z,2.577
2024-02-10T20:36:52.943Z,2.577
2024-02-10T20:41:52.982Z,2.577
2024-02-10T20:46:52.946Z,2.577
2024-02-10T20:51:52.960Z,2.577
2024-02-10T20:56:52.926Z,2.577
2024-02-10T21:01:53.026Z,2.576
2024-02-10T21:06:52.933Z,2.577
2024-02-10T21:11:52.936Z,2.577
2024-02-10T21:16:52.962Z,2.577
2024-02-10T21:21:52.914Z,2.575
2024-02-10T21:26:52.935Z,2.577
2024-02-10T21:31:52.913Z,2.575
2024-02-10T21:36:52.936Z,2.576
2024-02-10T21:41:52.900Z,2.577
2024-02-10T21:46:52.971Z,2.575
2024-02-10T21:51:52.919Z,2.577
2024-02-10T21:56:52.875Z,2.575
2024-02-10T22:01:53.030Z,2.575
2024-02-10T22:06:52.859Z,2.575
2024-02-10T22:11:52.872Z,2.575
2024-02-10T22:16:52.972Z,2.575
2024-02-10T22:21:52.850Z,2.573
2024-02-10T22:26:52.851Z,2.575
2024-02-10T22:31:52.891Z,2.573
2024-02-10T22:36:52.880Z,2.573
2024-02-10T22:41:52.844Z,2.575
2024-02-10T22:46:58.699Z,2.573
2024-02-10T22:51:52.841Z,2.572
2024-02-10T22:56:52.820Z,2.572
2024-02-10T23:01:52.955Z,2.572
2024-02-10T23:06:53.056Z,2.572
2024-02-10T23:11:52.834Z,2.572
2024-02-10T23:16:52.870Z,2.572
2024-02-10T23:21:52.812Z,2.572
2024-02-10T23:26:52.847Z,2.569
2024-02-10T23:31:52.877Z,2.572
2024-02-10T23:36:52.824Z,2.569
2024-02-10T23:41:52.822Z,2.571
2024-02-10T23:46:52.835Z,2.572
2024-02-10T23:51:52.799Z,2.569
2024-02-10T23:56:52.802Z,2.569
